Time;durP1;ratioP1;P1;durP2;ratioP2;P2;SDS_P1;SDS_P2;PMS_P1;PMS_P2;Temp;Humidity;BMP_temperature;BMP_pressure;BME280_temperature;BME280_humidity;BME280_pressure;Samples;Min_cycle;Max_cycle;Signal;HPM_P1;HPM_P2
2024/03/10 00:02:07;;;;;;;6.43;2.35;;;10.70;79.90;;;;;;5055242;28;20123;-83
2024/03/10 00:04:33;;;;;;;5.65;2.67;;;10.70;80.10;;;;;;5053068;28;20107;-80
2024/03/10 00:06:59;;;;;;;4.35;2.30;;;10.70;80.00;;;;;;5061723;28;20166;-82
2024/03/10 00:09:24;;;;;;;4.95;2.10;;;10.70;80.00;;;;;;5053338;28;20029;-81
2024/03/10 00:11:50;;;;;;;3.20;2.13;;;10.70;79.90;;;;;;5055588;28;20098;-80
2024/03/10 00:14:17;;;;;;;4.18;2.10;;;10.80;80.00;;;;;;5042644;28;20050;-82
2024/03/10 00:16:43;;;;;;;4.05;2.28;;;10.80;80.00;;;;;;5052326;28;20037;-79
2024/03/10 00:19:11;;;;;;;4.93;2.33;;;10.80;80.10;;;;;;5055320;28;20488;-77
2024/03/10 00:21:37;;;;;;;8.73;3.15;;;10.80;80.20;;;;;;5053155;28;20033;-82
2024/03/10 00:24:03;;;;;;;5.53;2.58;;;10.80;80.20;;;;;;5055368;28;20101;-77
2024/03/10 00:26:30;;;;;;;8.40;3.20;;;10.80;80.30;;;;;;5051909;28;20377;-81
2024/03/10 00:28:56;;;;;;;7.40;3.58;;;10.80;80.40;;;;;;5048757;28;20458;-82
2024/03/10 00:31:21;;;;;;;7.80;3.72;;;10.80;80.30;;;;;;5056441;28;20040;-82
2024/03/10 00:33:47;;;;;;;6.20;3.10;;;10.80;80.40;;;;;;5053665;28;20021;-82
2024/03/10 00:36:13;;;;;;;6.95;3.38;;;10.80;80.40;;;;;;5050332;28;20052;-79
2024/03/10 00:38:38;;;;;;;6.85;2.70;;;10.70;80.40;;;;;;5052717;28;20024;-82
2024/03/10 00:41:04;;;;;;;6.47;2.83;;;10.70;80.70;;;;;;5054275;28;20505;-81
2024/03/10 00:43:31;;;;;;;4.93;2.72;;;10.70;80.80;;;;;;5058276;28;20052;-79
2024/03/10 00:45:57;;;;;;;5.28;2.85;;;10.70;80.80;;;;;;5052995;28;20033;-83
2024/03/10 00:48:22;;;;;;;4.45;2.58;;;10.70;81.00;;;;;;5053476;28;20037;-82
2024/03/10 00:50:48;;;;;;;5.05;2.70;;;10.70;81.10;;;;;;5055083;28;20040;-78
2024/03/10 00:53:14;;;;;;;5.90;2.70;;;10.60;80.80;;;;;;5059217;28;20362;-82
2024/03/10 00:55:42;;;;;;;6.38;2.90;;;10.60;80.80;;;;;;5057106;28;20036;-80
2024/03/10 00:58:10;;;;;;;7.47;3.50;;;10.60;80.80;;;;;;5057266;28;20020;-82
2024/03/10 01:00:36;;;;;;;9.15;3.22;;;10.60;80.70;;;;;;5057016;28;20047;-83
2024/03/10 01:03:04;;;;;;;5.70;2.72;;;10.60;80.80;;;;;;5054785;28;20100;-77
2024/03/10 01:05:30;;;;;;;6.07;3.50;;;10.60;81.00;;;;;;5061641;28;20399;-79
2024/03/10 01:07:56;;;;;;;8.00;3.50;;;10.60;81.00;;;;;;5058057;28;20028;-83
2024/03/10 01:10:23;;;;;;;6.80;3.28;;;10.60;81.10;;;;;;5061813;28;20524;-81
2024/03/10 01:12:48;;;;;;;5.80;3.03;;;10.60;80.70;;;;;;5067256;28;20021;-79
2024/03/10 01:15:14;;;;;;;5.10;2.80;;;10.50;80.70;;;;;;5059321;28;20024;-81
2024/03/10 01:17:40;;;;;;;6.70;3.35;;;10.50;80.60;;;;;;5062993;28;20028;-79
2024/03/10 01:20:06;;;;;;;5.70;2.80;;;10.50;80.60;;;;;;5064060;28;20032;-83
2024/03/10 01:22:32;;;;;;;5.57;3.05;;;10.40;80.40;;;;;;5066605;28;20066;-82
2024/03/10 01:24:57;;;;;;;6.10;3.22;;;10.50;80.40;;;;;;5062932;28;20025;-83
2024/03/10 01:27:23;;;;;;;7.28;3.05;;;10.40;80.60;;;;;;5059448;28;20051;-83
2024/03/10 01:29:50;;;;;;;6.93;2.72;;;10.50;80.80;;;;;;5059643;28;20542;-78
2024/03/10 01:32:16;;;;;;;5.40;3.03;;;10.40;81.00;;;;;;5060124;28;20183;-84
2024/03/10 01:34:42;;;;;;;5.97;2.70;;;10.50;81.10;;;;;;5055035;28;20428;-80
2024/03/10 01:37:07;;;;;;;7.70;3.42;;;10.40;81.20;;;;;;5054229;28;20677;-79
2024/03/10 01:39:33;;;;;;;6.03;3.45;;;10.50;81.10;;;;;;5048440;28;20548;-84
2024/03/10 01:41:59;;;;;;;5.72;3.20;;;10.40;80.50;;;;;;5057145;28;20052;-84
2024/03/10 01:44:24;;;;;;;7.40;3.72;;;10.40;80.20;;;;;;5055150;28;20071;-83
2024/03/10 01:46:51;;;;;;;5.80;3.40;;;10.40;80.40;;;;;;5052691;28;20028;-81
2024/03/10 01:49:17;;;;;;;6.35;3.35;;;10.30;80.50;;;;;;5058357;28;20377;-80
2024/03/10 01:51:44;;;;;;;9.85;4.00;;;10.40;80.60;;;;;;5062465;28;20039;-83
2024/03/10 01:54:11;;;;;;;6.32;3.50;;;10.40;80.50;;;;;;5058887;28;20078;-80
2024/03/10 01:56:38;;;;;;;7.60;3.85;;;10.40;80.50;;;;;;5074027;28;20392;-79
2024/03/10 01:59:09;;;;;;;6.85;3.83;;;10.30;80.40;;;;;;5054544;28;20032;-84
2024/03/10 02:01:35;;;;;;;7.55;4.18;;;10.40;80.10;;;;;;5059614;28;20116;-84
2024/03/10 02:04:01;;;;;;;7.38;3.97;;;10.40;80.00;;;;;;5052646;28;20033;-79
2024/03/10 02:06:27;;;;;;;7.00;3.58;;;10.30;80.10;;;;;;5059250;28;20468;-85
2024/03/10 02:08:54;;;;;;;7.88;3.75;;;10.30;80.30;;;;;;5074446;28;20108;-79
2024/03/10 02:11:20;;;;;;;8.35;4.60;;;10.40;80.50;;;;;;5059929;28;20025;-81
2024/03/10 02:13:47;;;;;;;7.57;4.68;;;10.40;80.30;;;;;;5067561;28;20535;-84
2024/03/10 02:16:13;;;;;;;8.02;4.43;;;10.40;80.00;;;;;;5052074;28;20037;-82
2024/03/10 02:18:39;;;;;;;7.85;4.63;;;10.30;79.80;;;;;;5055367;28;20016;-81
2024/03/10 02:21:08;;;;;;;7.20;4.72;;;10.20;79.90;;;;;;5056149;28;20046;-86
2024/03/10 02:23:42;;;;;;;7.88;4.32;;;10.20;80.10;;;;;;5059334;28;20422;-78
2024/03/10 02:26:09;;;;;;;8.38;5.00;;;10.30;80.30;;;;;;5056092;28;20068;-84
2024/03/10 02:28:57;;;;;;;9.07;4.85;;;10.30;80.40;;;;;;5054090;28;20025;-84
2024/03/10 02:47:52;;;;;;;10.23;5.80;;;10.20;79.80;;;;;;5054031;28;21388;-83
2024/03/10 02:50:18;;;;;;;9.35;6.00;;;10.20;79.50;;;;;;5058866;28;20384;-78
2024/03/10 02:52:44;;;;;;;10.80;6.25;;;10.20;79.30;;;;;;5051135;28;20103;-82
2024/03/10 02:55:11;;;;;;;10.65;5.85;;;10.20;79.40;;;;;;5054495;28;20037;-83
2024/03/10 02:57:37;;;;;;;10.05;6.78;;;10.20;79.30;;;;;;5053060;28;20147;-79
2024/03/10 03:00:03;;;;;;;11.18;6.63;;;10.20;79.40;;;;;;5057661;28;20068;-85
2024/03/10 03:02:29;;;;;;;10.88;7.45;;;10.20;79.30;;;;;;5052145;28;20060;-82
2024/03/10 03:04:55;;;;;;;11.00;7.43;;;10.30;79.20;;;;;;5057672;28;20319;-78
2024/03/10 03:07:22;;;;;;;10.65;6.93;;;10.20;79.20;;;;;;5057419;28;20082;-83
2024/03/10 03:09:47;;;;;;;11.25;7.32;;;10.20;79.30;;;;;;5049018;28;20059;-83
2024/03/10 03:12:13;;;;;;;12.60;8.32;;;10.20;79.50;;;;;;5060308;28;20052;-84
2024/03/10 03:14:39;;;;;;;11.77;7.65;;;10.20;79.40;;;;;;5058406;28;20035;-84
2024/03/10 03:17:05;;;;;;;11.02;7.15;;;10.20;78.90;;;;;;5055987;28;20081;-77
2024/03/10 03:19:36;;;;;;;11.40;7.53;;;10.20;78.90;;;;;;5060159;28;20090;-82
2024/03/10 03:22:02;;;;;;;13.13;8.68;;;10.30;78.90;;;;;;5054523;28;20043;-84
2024/03/10 03:24:28;;;;;;;12.82;8.32;;;10.30;79.00;;;;;;5055191;28;20028;-79
2024/03/10 03:26:54;;;;;;;15.68;8.48;;;10.20;79.10;;;;;;5063222;28;20044;-84
2024/03/10 03:29:20;;;;;;;14.90;8.27;;;10.30;79.00;;;;;;5057226;28;20380;-82
2024/03/10 03:31:46;;;;;;;13.48;8.55;;;10.20;79.00;;;;;;5062496;28;20457;-78
2024/03/10 03:34:11;;;;;;;13.70;8.90;;;10.20;78.90;;;;;;5057002;28;20040;-82
2024/03/10 03:36:37;;;;;;;13.82;8.88;;;10.20;79.00;;;;;;5054147;28;20029;-84
2024/03/10 03:39:05;;;;;;;13.48;8.63;;;10.20;79.20;;;;;;5056122;28;20039;-78
2024/03/10 03:41:31;;;;;;;13.15;9.35;;;10.10;79.40;;;;;;5058704;28;20269;-84
2024/03/10 03:43:59;;;;;;;12.13;8.50;;;10.10;79.60;;;;;;5058609;28;20131;-79
2024/03/10 03:46:25;;;;;;;15.13;10.05;;;10.10;79.70;;;;;;5045202;28;20063;-83
2024/03/10 03:48:50;;;;;;;15.10;10.23;;;10.10;79.60;;;;;;5053833;28;20052;-83
2024/03/10 03:51:16;;;;;;;14.52;9.77;;;10.10;79.10;;;;;;5055606;28;20063;-77
2024/03/10 03:53:44;;;;;;;14.07;9.85;;;10.10;79.40;;;;;;5055412;28;20017;-78
2024/03/10 03:56:11;;;;;;;17.45;10.52;;;10.10;79.30;;;;;;5050792;28;20037;-81
2024/03/10 03:58:36;;;;;;;16.45;10.98;;;10.10;79.40;;;;;;5046237;28;20040;-79
2024/03/10 04:01:04;;;;;;;15.20;10.77;;;10.10;79.10;;;;;;5054383;28;20160;-78
2024/03/10 04:03:30;;;;;;;17.35;11.45;;;10.10;79.10;;;;;;5052685;28;20449;-80
2024/03/10 04:05:56;;;;;;;17.23;11.55;;;10.10;78.80;;;;;;5051790;28;20046;-83
2024/03/10 04:08:21;;;;;;;18.20;11.82;;;10.10;78.60;;;;;;5053663;28;20032;-84
2024/03/10 04:10:48;;;;;;;18.88;11.98;;;10.10;78.70;;;;;;5052105;28;20044;-79
2024/03/10 04:13:14;;;;;;;17.52;11.75;;;10.10;78.90;;;;;;5058643;28;20097;-83
2024/03/10 04:15:39;;;;;;;18.65;12.90;;;10.10;79.20;;;;;;5053725;28;20119;-82
2024/03/10 04:18:06;;;;;;;18.52;12.65;;;10.10;79.40;;;;;;5054319;28;20388;-80
2024/03/10 04:20:35;;;;;;;18.65;13.02;;;10.10;79.10;;;;;;5052824;28;20123;-86
2024/03/10 04:23:05;;;;;;;19.45;13.50;;;10.10;79.20;;;;;;5047323;28;20035;-78
2024/03/10 04:25:34;;;;;;;19.80;13.27;;;10.10;79.10;;;;;;5049030;28;20060;-77
2024/03/10 04:28:03;;;;;;;19.42;13.00;;;10.10;79.20;;;;;;5054495;28;20112;-82
2024/03/10 04:30:29;;;;;;;21.02;14.80;;;10.10;79.30;;;;;;5055144;28;20332;-84
2024/03/10 04:32:55;;;;;;;19.85;14.23;;;10.10;79.50;;;;;;5053510;28;20500;-80
2024/03/10 04:35:21;;;;;;;20.88;14.13;;;10.10;79.60;;;;;;5061328;28;20134;-84
2024/03/10 04:37:47;;;;;;;19.00;13.57;;;10.10;79.80;;;;;;5052886;28;20044;-82
2024/03/10 04:40:13;;;;;;;21.73;14.15;;;10.00;79.80;;;;;;5056247;28;20414;-78
2024/03/10 04:42:39;;;;;;;20.77;13.38;;;10.00;79.90;;;;;;5064725;28;20036;-85
2024/03/10 04:45:06;;;;;;;21.20;14.52;;;10.00;80.10;;;;;;5059906;28;20039;-85
2024/03/10 04:47:33;;;;;;;17.98;13.75;;;9.90;80.20;;;;;;5059879;28;20107;-78
2024/03/10 04:49:59;;;;;;;18.95;13.68;;;10.00;80.40;;;;;;5061144;28;20056;-85
2024/03/10 04:52:25;;;;;;;20.17;14.07;;;10.00;80.50;;;;;;5059512;28;20411;-85
2024/03/10 04:54:51;;;;;;;19.52;14.73;;;10.00;80.70;;;;;;5058469;28;20032;-80
2024/03/10 04:57:18;;;;;;;20.88;14.60;;;9.90;81.00;;;;;;5062989;28;20086;-83
2024/03/10 04:59:44;;;;;;;19.98;15.10;;;9.90;81.00;;;;;;5058654;28;20036;-84
2024/03/10 05:02:10;;;;;;;21.70;14.27;;;9.90;81.00;;;;;;5062555;28;20024;-80
2024/03/10 05:04:36;;;;;;;20.80;14.57;;;9.80;81.10;;;;;;5058236;28;20141;-85
2024/03/10 05:07:01;;;;;;;22.23;14.93;;;9.90;80.90;;;;;;5059103;28;20104;-79
2024/03/10 05:09:27;;;;;;;20.55;14.32;;;9.80;80.90;;;;;;5060506;28;20032;-80
2024/03/10 05:11:53;;;;;;;20.40;13.90;;;9.90;81.00;;;;;;5061100;28;20032;-82
2024/03/10 05:14:19;;;;;;;20.30;13.90;;;9.90;81.00;;;;;;5057731;28;20518;-84
2024/03/10 05:16:45;;;;;;;20.58;13.65;;;9.80;81.00;;;;;;5056502;28;20413;-85
2024/03/10 05:19:10;;;;;;;17.50;13.02;;;9.90;81.10;;;;;;5053723;28;20033;-84
2024/03/10 05:21:36;;;;;;;19.83;13.45;;;9.90;81.20;;;;;;5057674;28;20056;-82
2024/03/10 05:24:02;;;;;;;19.27;14.35;;;9.80;81.40;;;;;;5058298;28;20118;-79
2024/03/10 05:26:27;;;;;;;21.60;13.88;;;9.80;81.40;;;;;;5061094;28;20040;-80
2024/03/10 05:28:53;;;;;;;21.40;14.80;;;9.80;81.30;;;;;;5060835;28;20208;-82
2024/03/10 05:31:27;;;;;;;20.33;14.43;;;9.80;81.20;;;;;;5047535;28;20037;-85
2024/03/10 05:33:53;;;;;;;21.83;14.52;;;9.80;81.10;;;;;;5060612;28;20127;-78
2024/03/10 05:36:18;;;;;;;22.83;14.75;;;9.70;81.20;;;;;;5071701;28;20041;-83
2024/03/10 05:38:44;;;;;;;19.77;14.32;;;9.80;81.30;;;;;;5062698;28;20024;-80
2024/03/10 05:41:10;;;;;;;19.83;14.48;;;9.70;81.40;;;;;;5057854;28;20037;-79
2024/03/10 05:43:35;;;;;;;20.85;15.18;;;9.60;81.50;;;;;;5062038;28;20101;-85
2024/03/10 05:46:01;;;;;;;21.77;14.90;;;9.70;81.60;;;;;;5054312;28;20473;-81
2024/03/10 05:48:26;;;;;;;20.38;14.23;;;9.70;81.80;;;;;;5061052;28;20480;-78
2024/03/10 05:50:52;;;;;;;20.23;14.90;;;9.60;82.00;;;;;;5053763;28;20059;-76
2024/03/10 05:53:18;;;;;;;22.05;14.27;;;9.70;82.10;;;;;;5053632;28;20021;-80
2024/03/10 05:55:44;;;;;;;23.95;16.23;;;9.60;82.10;;;;;;5056280;28;20624;-81
2024/03/10 05:58:12;;;;;;;25.20;16.27;;;9.60;82.20;;;;;;5053280;28;20454;-82
2024/03/10 06:00:38;;;;;;;23.42;16.45;;;9.50;82.20;;;;;;5057385;28;20100;-78
2024/03/10 06:03:04;;;;;;;24.05;16.20;;;9.50;82.10;;;;;;5061200;28;20373;-80
2024/03/10 06:05:30;;;;;;;24.48;16.95;;;9.50;82.20;;;;;;5056057;28;20409;-80
2024/03/10 06:07:56;;;;;;;22.63;16.35;;;9.50;82.20;;;;;;5054920;28;20031;-83
2024/03/10 06:10:22;;;;;;;22.15;15.60;;;9.50;82.30;;;;;;5061376;28;20150;-80
2024/03/10 06:12:47;;;;;;;22.38;15.45;;;9.50;82.50;;;;;;5061001;28;20039;-78
2024/03/10 06:15:16;;;;;;;25.02;17.08;;;9.50;82.70;;;;;;5057545;28;20051;-83
2024/03/10 06:17:50;;;;;;;21.42;15.82;;;9.50;82.80;;;;;;5056082;28;20021;-80
2024/03/10 06:25:45;;;;;;;23.10;17.10;;;9.50;83.20;;;;;;5057026;28;20036;-84
2024/03/10 06:28:10;;;;;;;21.90;16.05;;;9.50;83.30;;;;;;5057013;28;20377;-83
2024/03/10 06:30:36;;;;;;;21.90;15.60;;;9.50;83.40;;;;;;5058483;28;20059;-80
2024/03/10 06:33:02;;;;;;;23.17;15.68;;;9.50;83.60;;;;;;5059312;28;20021;-83
2024/03/10 06:35:28;;;;;;;22.52;16.55;;;9.50;83.70;;;;;;5063806;28;20107;-76
2024/03/10 06:37:54;;;;;;;25.40;17.63;;;9.50;83.70;;;;;;5059836;28;20170;-75
2024/03/10 06:40:21;;;;;;;22.27;15.93;;;9.50;83.90;;;;;;5064621;28;20043;-77
2024/03/10 06:42:47;;;;;;;22.05;16.33;;;9.50;84.00;;;;;;5053938;28;20037;-75
2024/03/10 06:45:13;;;;;;;21.48;17.00;;;9.50;84.10;;;;;;5058856;28;20050;-75
2024/03/10 06:47:39;;;;;;;23.40;17.08;;;9.50;84.20;;;;;;5054421;28;20479;-76
2024/03/10 06:50:06;;;;;;;22.42;16.33;;;9.50;84.30;;;;;;5055037;28;20453;-76
2024/03/10 06:52:32;;;;;;;23.83;17.27;;;9.50;84.30;;;;;;5043146;28;20045;-77
2024/03/10 06:54:59;;;;;;;26.80;17.33;;;9.40;84.20;;;;;;5057268;28;20033;-76
2024/03/10 06:57:24;;;;;;;23.85;17.02;;;9.40;84.30;;;;;;5058452;28;20043;-76
2024/03/10 06:59:52;;;;;;;22.02;16.88;;;9.40;84.50;;;;;;5050648;28;20150;-75
2024/03/10 07:02:18;;;;;;;23.33;16.80;;;9.40;84.70;;;;;;5053579;28;20036;-75
2024/03/10 07:04:45;;;;;;;23.88;17.17;;;9.40;84.80;;;;;;5054271;28;20041;-77
2024/03/10 07:07:11;;;;;;;24.88;16.67;;;9.40;84.80;;;;;;5056875;28;20054;-76
2024/03/10 07:09:36;;;;;;;24.92;16.92;;;9.40;84.90;;;;;;5052726;28;20045;-75
2024/03/10 07:12:06;;;;;;;23.58;17.23;;;9.40;85.00;;;;;;5054700;28;20217;-75
2024/03/10 07:14:32;;;;;;;25.17;17.60;;;9.50;85.10;;;;;;5051207;28;20125;-76
2024/03/10 07:16:58;;;;;;;25.15;18.05;;;9.50;85.00;;;;;;5050525;28;20024;-76
2024/03/10 07:19:24;;;;;;;24.48;17.63;;;9.50;85.00;;;;;;5054716;28;20043;-77
2024/03/10 07:21:50;;;;;;;26.50;18.88;;;9.50;84.90;;;;;;5054134;28;20489;-77
2024/03/10 07:24:16;;;;;;;26.85;19.58;;;9.50;84.70;;;;;;5046004;28;20078;-76
2024/03/10 07:26:41;;;;;;;28.70;18.65;;;9.40;84.50;;;;;;5053495;28;20085;-75
2024/03/10 07:29:07;;;;;;;24.83;18.15;;;9.40;84.40;;;;;;5050616;28;20028;-77
2024/03/10 07:31:33;;;;;;;26.83;18.95;;;9.40;84.40;;;;;;5057750;28;20227;-76
2024/03/10 07:33:59;;;;;;;24.02;18.05;;;9.50;84.00;;;;;;5051004;28;20358;-75
2024/03/10 07:36:26;;;;;;;25.85;20.33;;;9.60;84.00;;;;;;5061025;28;20581;-74
2024/03/10 07:38:53;;;;;;;25.00;20.38;;;9.50;83.80;;;;;;5059627;28;20017;-75
2024/03/10 07:41:21;;;;;;;28.20;20.90;;;9.60;84.00;;;;;;5056304;28;20025;-75
2024/03/10 07:43:47;;;;;;;25.65;19.30;;;9.60;84.10;;;;;;5056178;28;20049;-76
2024/03/10 07:46:14;;;;;;;25.27;19.35;;;9.60;84.20;;;;;;5053986;28;20048;-75
2024/03/10 07:48:40;;;;;;;26.40;20.40;;;9.70;84.30;;;;;;5054087;28;20013;-76
2024/03/10 07:51:05;;;;;;;25.38;19.23;;;9.70;84.20;;;;;;5053836;28;20078;-76
2024/03/10 07:53:31;;;;;;;24.75;18.80;;;9.70;84.10;;;;;;5048037;28;20047;-76
2024/03/10 07:56:00;;;;;;;25.27;18.52;;;9.80;84.10;;;;;;5053330;28;20553;-77
2024/03/10 07:58:26;;;;;;;26.67;20.10;;;9.80;84.20;;;;;;5060430;28;20110;-75
2024/03/10 08:00:54;;;;;;;25.70;19.17;;;9.80;84.20;;;;;;5053659;28;20652;-74
2024/03/10 08:03:20;;;;;;;24.58;18.95;;;9.80;84.30;;;;;;5049082;28;20025;-75
2024/03/10 08:05:46;;;;;;;28.10;18.92;;;9.80;84.10;;;;;;5056261;28;20358;-75
2024/03/10 08:08:12;;;;;;;26.08;18.80;;;9.80;83.80;;;;;;5058708;28;21638;-75
2024/03/10 08:10:38;;;;;;;25.60;19.05;;;9.90;83.70;;;;;;5055070;28;20029;-75
2024/03/10 08:13:03;;;;;;;25.73;19.20;;;9.90;83.80;;;;;;5061701;28;20365;-75
2024/03/10 08:15:29;;;;;;;25.10;17.92;;;9.90;83.90;;;;;;5055722;28;20131;-74
2024/03/10 08:17:55;;;;;;;24.80;19.02;;;9.90;84.00;;;;;;5060250;28;20027;-74
2024/03/10 08:20:20;;;;;;;29.48;23.75;;;9.90;84.00;;;;;;5055590;28;20039;-76
2024/03/10 08:22:46;;;;;;;26.83;20.52;;;9.90;83.90;;;;;;5063921;28;20024;-76
2024/03/10 08:25:12;;;;;;;29.65;21.63;;;9.80;83.40;;;;;;5063408;28;20460;-75
2024/03/10 08:27:38;;;;;;;25.10;20.02;;;9.70;83.20;;;;;;5062257;28;20057;-74
2024/03/10 08:30:15;;;;;;;26.13;19.05;;;9.80;83.00;;;;;;5064670;28;20484;-74
2024/03/10 08:32:41;;;;;;;27.38;19.50;;;9.80;83.10;;;;;;5058684;28;20021;-74
2024/03/10 08:35:08;;;;;;;28.08;19.75;;;9.80;82.50;;;;;;5060759;28;20028;-76
2024/03/10 08:37:37;;;;;;;24.50;18.92;;;9.70;82.50;;;;;;5059156;28;21323;-75
2024/03/10 08:40:13;;;;;;;29.55;20.20;;;9.60;83.20;;;;;;5056358;28;20120;-75
2024/03/10 08:42:41;;;;;;;26.45;18.80;;;9.60;83.40;;;;;;5058045;28;20131;-75
2024/03/10 08:45:10;;;;;;;24.38;19.13;;;9.60;83.30;;;;;;5050501;28;20341;-75
2024/03/10 08:47:46;;;;;;;24.67;18.25;;;9.70;83.20;;;;;;5056071;28;20459;-75
2024/03/10 08:50:12;;;;;;;28.40;21.13;;;9.80;83.30;;;;;;5055304;28;20032;-76
2024/03/10 08:52:39;;;;;;;32.05;22.27;;;9.90;83.20;;;;;;5058691;28;20024;-75
2024/03/10 08:55:06;;;;;;;36.58;23.75;;;10.00;83.10;;;;;;5056051;28;20032;-75
2024/03/10 08:57:33;;;;;;;36.05;24.73;;;10.10;83.10;;;;;;5056773;28;20036;-75
2024/03/10 09:00:02;;;;;;;33.50;23.52;;;10.10;82.90;;;;;;5058290;28;20036;-76
2024/03/10 09:02:29;;;;;;;41.15;24.35;;;10.20;82.90;;;;;;5074124;28;20017;-75
2024/03/10 09:04:55;;;;;;;31.83;22.15;;;10.20;82.60;;;;;;5060440;28;20037;-76
2024/03/10 09:07:21;;;;;;;30.55;21.00;;;10.10;82.60;;;;;;5056632;28;20039;-75
2024/03/10 09:09:47;;;;;;;29.13;20.42;;;10.30;82.80;;;;;;5057719;28;20028;-75
2024/03/10 09:12:12;;;;;;;28.58;21.42;;;10.40;82.40;;;;;;5058517;28;20779;-76
2024/03/10 09:14:38;;;;;;;29.90;20.75;;;10.60;82.30;;;;;;5057275;28;20406;-75
2024/03/10 09:17:04;;;;;;;28.90;20.63;;;10.80;81.40;;;;;;5055462;28;20040;-75
2024/03/10 09:19:30;;;;;;;31.33;21.83;;;10.90;81.30;;;;;;5061820;28;20047;-74
2024/03/10 09:21:56;;;;;;;32.20;21.73;;;11.10;81.00;;;;;;5062974;28;20036;-75
2024/03/10 09:24:22;;;;;;;33.50;21.95;;;11.10;80.00;;;;;;5060224;28;20024;-75
2024/03/10 09:26:47;;;;;;;33.72;22.98;;;11.30;80.10;;;;;;5063860;28;20384;-75
2024/03/10 09:29:14;;;;;;;28.10;20.35;;;11.40;79.90;;;;;;5064722;28;20020;-74
2024/03/10 09:31:41;;;;;;;24.02;18.50;;;11.50;79.20;;;;;;5055312;28;20569;-75
2024/03/10 09:34:09;;;;;;;23.75;17.23;;;11.60;78.40;;;;;;5053836;28;20056;-75
2024/03/10 09:36:35;;;;;;;24.27;19.02;;;11.60;77.70;;;;;;5043977;28;20036;-75
2024/03/10 09:39:00;;;;;;;25.77;18.27;;;11.60;78.00;;;;;;5052721;28;20540;-75
2024/03/10 09:41:29;;;;;;;26.40;18.90;;;11.60;78.20;;;;;;5058394;28;20449;-75
2024/03/10 09:43:56;;;;;;;26.77;19.30;;;11.70;78.10;;;;;;5059138;28;20420;-75
2024/03/10 09:46:22;;;;;;;24.10;19.17;;;11.60;77.80;;;;;;5051585;28;20029;-74
2024/03/10 09:48:49;;;;;;;25.45;19.05;;;11.60;77.90;;;;;;5059388;28;20468;-74
2024/03/10 09:51:15;;;;;;;27.35;19.38;;;11.60;77.90;;;;;;5057759;28;20049;-75
2024/03/10 09:53:43;;;;;;;24.35;18.73;;;11.70;77.90;;;;;;5061121;28;20076;-76
2024/03/10 09:56:12;;;;;;;25.35;19.15;;;11.60;77.90;;;;;;5064333;28;20032;-76
2024/03/10 09:58:56;;;;;;;25.00;18.85;;;11.70;77.50;;;;;;5060589;28;20020;-74
2024/03/10 10:01:24;;;;;;;27.52;19.73;;;11.60;77.80;;;;;;5055593;28;20029;-74
2024/03/10 10:03:52;;;;;;;25.70;19.63;;;11.60;78.10;;;;;;5053892;28;20084;-74
2024/03/10 10:06:20;;;;;;;23.63;18.75;;;11.60;78.30;;;;;;5050656;28;20056;-73
2024/03/10 10:08:55;;;;;;;26.00;18.65;;;11.60;78.30;;;;;;5055888;28;20028;-73
2024/03/10 10:11:24;;;;;;;25.08;19.15;;;11.80;78.60;;;;;;5055010;28;20547;-73
2024/03/10 10:14:10;;;;;;;24.63;18.25;;;11.90;78.20;;;;;;5059317;28;20024;-72
2024/03/10 10:16:44;;;;;;;28.13;22.00;;;11.90;77.70;;;;;;5058748;28;20098;-73
2024/03/10 10:19:13;;;;;;;24.80;18.30;;;12.00;77.50;;;;;;5051849;28;20786;-72
2024/03/10 10:21:39;;;;;;;25.40;19.15;;;12.10;77.20;;;;;;5052851;28;20037;-73
2024/03/10 10:24:09;;;;;;;29.17;21.85;;;12.10;77.10;;;;;;5052925;28;20026;-73
2024/03/10 10:26:35;;;;;;;25.23;19.67;;;12.10;77.40;;;;;;5057819;28;20033;-73
2024/03/10 10:29:07;;;;;;;23.90;18.85;;;12.10;77.20;;;;;;5054237;28;20025;-72
2024/03/10 10:31:34;;;;;;;25.98;19.98;;;12.30;77.20;;;;;;5050580;28;20477;-73
2024/03/10 10:34:01;;;;;;;32.75;24.27;;;12.40;76.60;;;;;;5055347;28;20702;-73
2024/03/10 10:36:27;;;;;;;29.63;22.17;;;12.40;76.20;;;;;;5052479;28;20441;-73
2024/03/10 10:38:52;;;;;;;25.65;19.08;;;12.40;75.70;;;;;;5057733;28;20026;-72
2024/03/10 10:41:20;;;;;;;25.77;21.50;;;12.40;75.30;;;;;;5053205;28;20044;-72
2024/03/10 10:43:46;;;;;;;25.00;18.83;;;12.40;75.30;;;;;;5053149;28;20452;-72
2024/03/10 10:46:13;;;;;;;23.85;18.77;;;12.40;74.80;;;;;;5052771;28;20024;-72
2024/03/10 10:48:40;;;;;;;26.50;19.73;;;12.40;74.90;;;;;;5042188;28;20450;-73
2024/03/10 10:51:09;;;;;;;23.02;17.80;;;12.40;75.10;;;;;;5025221;28;20662;-74
2024/03/10 10:53:38;;;;;;;23.08;17.73;;;12.40;74.80;;;;;;5042365;28;20094;-73
2024/03/10 10:56:04;;;;;;;23.48;18.17;;;12.40;75.40;;;;;;5057306;28;20066;-74
2024/03/10 10:58:31;;;;;;;27.08;19.48;;;12.40;75.60;;;;;;5057540;28;20028;-75
2024/03/10 11:01:05;;;;;;;23.40;18.70;;;12.30;75.30;;;;;;5055277;28;20033;-75
2024/03/10 11:03:40;;;;;;;26.30;19.77;;;12.30;75.40;;;;;;5045865;28;20032;-77
2024/03/10 11:06:06;;;;;;;26.20;20.38;;;12.30;75.60;;;;;;5055769;28;20070;-76
2024/03/10 11:08:32;;;;;;;26.88;19.73;;;12.20;76.30;;;;;;5061836;28;20025;-76
2024/03/10 11:10:58;;;;;;;26.58;20.77;;;12.10;76.80;;;;;;5057921;28;20107;-76
2024/03/10 11:13:25;;;;;;;26.65;20.70;;;12.10;77.40;;;;;;5023385;28;20072;-74
2024/03/10 11:16:11;;;;;;;31.05;23.27;;;12.00;79.00;;;;;;5032578;28;20456;-75
2024/03/10 11:18:38;;;;;;;28.25;21.50;;;11.90;79.90;;;;;;5058168;28;20314;-73
2024/03/10 11:21:12;;;;;;;28.85;22.30;;;11.80;80.20;;;;;;5056554;28;20354;-74
2024/03/10 11:23:46;;;;;;;30.60;21.65;;;11.70;80.40;;;;;;5061226;28;20016;-74
2024/03/10 11:26:25;;;;;;;27.10;21.45;;;11.70;80.70;;;;;;5049330;28;20115;-75
2024/03/10 11:28:53;;;;;;;28.50;21.83;;;11.70;80.70;;;;;;5054271;28;20020;-73
2024/03/10 11:31:35;;;;;;;28.52;22.02;;;11.70;80.90;;;;;;5052776;28;20025;-73
2024/03/10 11:34:04;;;;;;;29.20;21.42;;;11.80;81.30;;;;;;5057856;28;20039;-74
2024/03/10 11:36:38;;;;;;;28.33;21.83;;;11.80;81.40;;;;;;5054659;28;20025;-73
2024/03/10 11:39:06;;;;;;;28.05;20.92;;;11.80;80.20;;;;;;5068491;28;20458;-74
2024/03/10 11:41:32;;;;;;;28.35;21.13;;;11.80;79.80;;;;;;5051571;28;20632;-74
2024/03/10 11:43:59;;;;;;;28.20;21.25;;;11.90;80.00;;;;;;5054498;28;20045;-74
2024/03/10 11:46:31;;;;;;;26.02;20.80;;;12.00;80.10;;;;;;5051361;28;20036;-73
2024/03/10 11:48:57;;;;;;;28.98;21.92;;;12.10;80.20;;;;;;5050318;28;20373;-74
2024/03/10 11:51:35;;;;;;;28.25;22.08;;;12.00;79.40;;;;;;5051351;28;20040;-75
2024/03/10 11:54:04;;;;;;;27.70;22.00;;;12.00;79.60;;;;;;5058679;28;20029;-73
2024/03/10 11:56:33;;;;;;;28.25;22.38;;;12.00;79.70;;;;;;5048108;28;20075;-73
2024/03/10 11:58:59;;;;;;;29.42;22.33;;;11.90;80.20;;;;;;5053154;28;20020;-75
2024/03/10 12:01:28;;;;;;;27.23;21.23;;;11.80;80.90;;;;;;5050235;28;20383;-76
2024/03/10 12:03:55;;;;;;;30.33;22.92;;;11.90;81.30;;;;;;5057069;28;20062;-75
2024/03/10 12:06:23;;;;;;;29.05;21.80;;;11.80;81.20;;;;;;5055153;28;20757;-74
2024/03/10 12:08:49;;;;;;;28.17;21.92;;;11.60;81.20;;;;;;5053790;28;20016;-75
2024/03/10 12:11:18;;;;;;;30.13;23.42;;;11.60;81.60;;;;;;5052759;28;20511;-74
2024/03/10 12:13:45;;;;;;;30.30;23.65;;;11.60;82.10;;;;;;5055323;28;20473;-75
2024/03/10 12:16:12;;;;;;;42.92;28.98;;;11.60;82.00;;;;;;5047754;28;20551;-74
2024/03/10 12:18:40;;;;;;;38.95;27.38;;;11.60;81.80;;;;;;5053086;28;20024;-73
2024/03/10 12:21:14;;;;;;;33.00;24.38;;;11.60;81.60;;;;;;5047461;28;20029;-74
2024/03/10 12:23:41;;;;;;;35.75;25.33;;;11.60;81.30;;;;;;5048251;28;20032;-74
2024/03/10 12:26:09;;;;;;;36.17;26.55;;;11.60;81.60;;;;;;5054302;28;20560;-75
2024/03/10 12:28:40;;;;;;;32.35;24.75;;;11.80;81.90;;;;;;5055636;28;20063;-75
2024/03/10 12:31:16;;;;;;;31.02;23.73;;;11.70;81.20;;;;;;5056551;28;20037;-76
2024/03/10 12:33:49;;;;;;;27.70;22.65;;;11.80;82.10;;;;;;5059164;28;20055;-75
2024/03/10 12:36:17;;;;;;;31.75;22.52;;;11.50;79.80;;;;;;5048056;28;20060;-75
2024/03/10 12:38:43;;;;;;;30.50;24.30;;;11.60;80.50;;;;;;5030244;28;20325;-76
2024/03/10 12:41:12;;;;;;;29.88;23.80;;;11.60;80.00;;;;;;5038925;28;20040;-75
2024/03/10 12:43:38;;;;;;;29.67;22.92;;;11.60;79.00;;;;;;5018991;28;20044;-76
2024/03/10 12:46:09;;;;;;;29.90;22.77;;;11.50;79.50;;;;;;5018810;28;20413;-75
2024/03/10 12:48:34;;;;;;;32.75;24.35;;;11.70;80.30;;;;;;5014554;28;20701;-75
2024/03/10 12:51:00;;;;;;;29.58;22.15;;;11.80;80.40;;;;;;5043317;28;20467;-76
2024/03/10 12:53:26;;;;;;;28.67;21.20;;;12.10;78.70;;;;;;5051839;28;20021;-76
2024/03/10 12:55:51;;;;;;;28.35;21.92;;;12.20;77.30;;;;;;5051651;28;20419;-75
2024/03/10 12:58:17;;;;;;;31.65;22.70;;;12.60;77.00;;;;;;5054129;28;20535;-74